Time;durP1;ratioP1;P1;durP2;ratioP2;P2;SDS_P1;SDS_P2;PMS_P1;PMS_P2;Temp;Humidity;BMP_temperature;BMP_pressure;BME280_temperature;BME280_humidity;BME280_pressure;Samples;Min_cycle;Max_cycle;Signal;HPM_P1;HPM_P2
2023/08/20 00:04:25;;;;;;;;;;;20.40;99.90;;;;;;20973232;28;19917;-72
2023/08/20 00:14:44;;;;;;;;;;;20.20;99.90;;;;;;20969206;28;19916;-72
2023/08/20 00:24:45;;;;;;;;;;;19.90;99.90;;;;;;21014184;28;20373;-72
2023/08/20 00:34:46;;;;;;;;;;;19.80;99.90;;;;;;20988788;28;19955;-72
2023/08/20 00:44:47;;;;;;;;;;;19.90;99.90;;;;;;20966378;28;19943;-72
2023/08/20 00:54:48;;;;;;;;;;;19.60;99.90;;;;;;20982005;28;20404;-72
2023/08/20 01:04:49;;;;;;;;;;;19.50;99.90;;;;;;20972426;28;19967;-72
2023/08/20 01:14:49;;;;;;;;;;;19.30;99.90;;;;;;20971926;28;19933;-72
2023/08/20 01:25:05;;;;;;;;;;;19.40;99.90;;;;;;20991871;28;19952;-72
2023/08/20 01:35:06;;;;;;;;;;;19.30;99.90;;;;;;20976443;28;20283;-72
2023/08/20 01:45:07;;;;;;;;;;;19.30;99.90;;;;;;21004980;28;19922;-72
2023/08/20 01:55:08;;;;;;;;;;;19.00;99.90;;;;;;20962037;28;19913;-72
2023/08/20 02:05:10;;;;;;;;;;;19.00;99.90;;;;;;20976260;28;19920;-72
2023/08/20 02:15:12;;;;;;;;;;;18.70;99.90;;;;;;20969691;28;19913;-72
2023/08/20 02:25:13;;;;;;;;;;;18.70;99.90;;;;;;20966697;28;19924;-72
2023/08/20 02:35:16;;;;;;;;;;;18.70;99.90;;;;;;20941656;22;20298;-79
2023/08/20 02:45:16;;;;;;;;;;;18.70;99.90;;;;;;20932238;28;19916;-78
2023/08/20 02:55:17;;;;;;;;;;;18.50;99.90;;;;;;20928024;28;19952;-79
2023/08/20 03:05:20;;;;;;;;;;;18.30;99.90;;;;;;20926843;28;20225;-77
2023/08/20 03:15:21;;;;;;;;;;;18.30;99.90;;;;;;20928779;28;20351;-79
2023/08/20 03:25:21;;;;;;;;;;;18.20;99.90;;;;;;20922502;28;19924;-79
2023/08/20 03:35:22;;;;;;;;;;;18.10;99.90;;;;;;20921616;28;19917;-79
2023/08/20 03:45:22;;;;;;;;;;;18.30;99.90;;;;;;20930753;28;19923;-79
2023/08/20 03:55:23;;;;;;;;;;;18.30;99.90;;;;;;20929560;28;19920;-78
2023/08/20 04:05:24;;;;;;;;;;;17.90;99.90;;;;;;20913002;28;19976;-79
2023/08/20 04:15:25;;;;;;;;;;;18.00;99.90;;;;;;20914559;28;19920;-79
2023/08/20 04:25:26;;;;;;;;;;;18.00;99.90;;;;;;20934288;28;20403;-79
2023/08/20 04:35:27;;;;;;;;;;;17.70;99.90;;;;;;20933214;28;19917;-79
2023/08/20 04:45:28;;;;;;;;;;;17.90;99.90;;;;;;20928284;28;19927;-78
2023/08/20 04:55:29;;;;;;;;;;;18.10;99.90;;;;;;20909318;28;19955;-78
2023/08/20 05:05:30;;;;;;;;;;;18.10;99.90;;;;;;20907496;28;19960;-79
2023/08/20 05:15:31;;;;;;;;;;;18.40;99.90;;;;;;20938387;28;19951;-79
2023/08/20 05:25:32;;;;;;;;;;;18.60;99.90;;;;;;20943905;28;19917;-79
2023/08/20 05:35:32;;;;;;;;;;;18.80;99.90;;;;;;20919892;28;19924;-78
2023/08/20 05:45:33;;;;;;;;;;;18.90;99.90;;;;;;20934903;28;20129;-79
2023/08/20 05:55:34;;;;;;;;;;;18.70;99.90;;;;;;20934125;28;19939;-79
2023/08/20 06:05:35;;;;;;;;;;;18.90;99.90;;;;;;20909940;28;19917;-79
2023/08/20 06:15:35;;;;;;;;;;;19.50;99.90;;;;;;20911661;28;20010;-78
2023/08/20 06:25:36;;;;;;;;;;;20.60;99.90;;;;;;20924179;28;19917;-79
2023/08/20 06:35:37;;;;;;;;;;;20.70;99.90;;;;;;20930747;28;19917;-78
2023/08/20 06:45:38;;;;;;;;;;;21.50;99.90;;;;;;20931384;28;19916;-78
2023/08/20 06:55:38;;;;;;;;;;;22.40;99.90;;;;;;20935854;28;19913;-79
2023/08/20 07:05:39;;;;;;;;;;;22.70;99.90;;;;;;20941236;28;20279;-78
2023/08/20 07:15:40;;;;;;;;;;;23.40;99.90;;;;;;20946120;28;19913;-78
2023/08/20 07:25:41;;;;;;;;;;;24.20;99.90;;;;;;20945208;28;19924;-76
2023/08/20 07:35:41;;;;;;;;;;;25.20;99.90;;;;;;20936759;28;19923;-78
2023/08/20 07:45:42;;;;;;;;;;;26.30;99.90;;;;;;20924786;28;19921;-76
2023/08/20 07:55:43;;;;;;;;;;;27.00;99.90;;;;;;20909473;28;19913;-77
2023/08/20 08:05:47;;;;;;;;;;;27.30;99.90;;;;;;20919668;28;19983;-76
2023/08/20 08:15:49;;;;;;;;;;;27.50;99.90;;;;;;20919775;28;19913;-78
2023/08/20 08:25:49;;;;;;;;;;;27.90;99.90;;;;;;20959408;28;19960;-78
2023/08/20 08:35:50;;;;;;;;;;;28.00;99.90;;;;;;20977253;22;19932;-79
2023/08/20 08:45:52;;;;;;;;;;;29.20;99.90;;;;;;20993378;22;20383;-78
2023/08/20 08:55:52;;;;;;;;;;;29.20;99.90;;;;;;20865831;28;19913;-77
2023/08/20 09:05:59;;;;;;;;;;;30.30;99.90;;;;;;20940260;28;19974;-79
2023/08/20 09:15:59;;;;;;;;;;;30.40;99.90;;;;;;20954677;28;19913;-78
2023/08/20 09:26:04;;;;;;;;;;;31.00;99.90;;;;;;20941322;28;19923;-79
2023/08/20 09:36:04;;;;;;;;;;;30.60;99.90;;;;;;20937838;28;19947;-79
2023/08/20 09:46:05;;;;;;;;;;;32.00;99.90;;;;;;20891258;28;19948;-79
2023/08/20 09:56:10;;;;;;;;;;;32.50;99.90;;;;;;20909208;28;19913;-78
2023/08/20 10:06:11;;;;;;;;;;;32.50;99.90;;;;;;20855442;28;19917;-79
2023/08/20 10:16:11;;;;;;;;;;;33.00;99.90;;;;;;20931396;28;19936;-78
2023/08/20 10:26:14;;;;;;;;;;;32.60;99.90;;;;;;20942255;28;20015;-78
2023/08/20 10:36:16;;;;;;;;;;;33.60;98.70;;;;;;20939334;28;19913;-77
2023/08/20 10:46:16;;;;;;;;;;;33.90;96.90;;;;;;20964187;28;19939;-78
2023/08/20 10:56:17;;;;;;;;;;;35.20;96.40;;;;;;20975318;28;19913;-79
2023/08/20 11:06:18;;;;;;;;;;;35.50;94.80;;;;;;20997430;28;19917;-78
2023/08/20 11:16:19;;;;;;;;;;;35.70;94.80;;;;;;20957156;28;19913;-78
2023/08/20 11:26:19;;;;;;;;;;;34.80;93.70;;;;;;20955010;28;19917;-78
2023/08/20 11:36:20;;;;;;;;;;;35.60;92.10;;;;;;20926144;28;20313;-77
2023/08/20 11:46:22;;;;;;;;;;;35.40;92.50;;;;;;20952698;28;19923;-77
2023/08/20 11:56:23;;;;;;;;;;;37.00;90.30;;;;;;20945095;28;19913;-77
2023/08/20 12:06:24;;;;;;;;;;;36.70;89.00;;;;;;20958468;28;19924;-77
2023/08/20 12:16:26;;;;;;;;;;;36.60;90.00;;;;;;20977731;28;19967;-78
2023/08/20 12:26:27;;;;;;;;;;;36.60;89.20;;;;;;20975062;28;19917;-78
2023/08/20 12:36:28;;;;;;;;;;;36.20;84.70;;;;;;20942918;28;19912;-78
2023/08/20 12:46:28;;;;;;;;;;;37.00;82.30;;;;;;20943819;28;20374;-78
2023/08/20 12:56:29;;;;;;;;;;;37.40;84.70;;;;;;20944381;28;19913;-78
2023/08/20 13:06:30;;;;;;;;;;;38.00;81.70;;;;;;20952047;28;19924;-77
2023/08/20 13:16:31;;;;;;;;;;;37.20;79.70;;;;;;20970785;28;19920;-78
2023/08/20 13:26:39;;;;;;;;;;;36.10;80.60;;;;;;21177473;27;19922;-79
2023/08/20 13:36:39;;;;;;;;;;;37.10;77.50;;;;;;21178966;28;20354;-79
2023/08/20 13:46:40;;;;;;;;;;;37.10;79.20;;;;;;21174135;28;19975;-78
2023/08/20 13:56:41;;;;;;;;;;;36.60;79.90;;;;;;21175364;28;19915;-77
2023/08/20 14:06:41;;;;;;;;;;;36.20;78.90;;;;;;21171983;28;19912;-78
2023/08/20 14:16:42;;;;;;;;;;;36.80;78.10;;;;;;21171533;28;20323;-78
2023/08/20 14:26:43;;;;;;;;;;;35.90;80.70;;;;;;21155521;28;20014;-75
2023/08/20 14:36:43;;;;;;;;;;;36.40;78.40;;;;;;21128598;28;19912;-78
2023/08/20 14:46:44;;;;;;;;;;;36.00;78.30;;;;;;21151313;22;19924;-86
2023/08/20 14:56:45;;;;;;;;;;;36.10;79.90;;;;;;20899812;28;19917;-84
2023/08/20 15:06:45;;;;;;;;;;;35.50;80.30;;;;;;20919684;28;19920;-84
2023/08/20 15:16:46;;;;;;;;;;;36.10;83.90;;;;;;20903310;28;19959;-85
2023/08/20 15:26:47;;;;;;;;;;;35.50;81.70;;;;;;20843608;28;20393;-84
2023/08/20 15:36:48;;;;;;;;;;;35.00;84.10;;;;;;20835852;28;19997;-82
2023/08/20 15:46:48;;;;;;;;;;;34.90;85.50;;;;;;20907363;28;20007;-84
2023/08/20 15:56:49;;;;;;;;;;;35.40;86.30;;;;;;20917273;28;19935;-86
2023/08/20 16:06:50;;;;;;;;;;;35.50;86.50;;;;;;20912734;28;19920;-84
2023/08/20 16:16:51;;;;;;;;;;;35.10;87.70;;;;;;20885315;28;20286;-83
2023/08/20 16:26:52;;;;;;;;;;;34.60;86.30;;;;;;20916261;28;20014;-85
2023/08/20 16:36:54;;;;;;;;;;;34.30;90.50;;;;;;20917504;28;19944;-85
2023/08/20 16:46:54;;;;;;;;;;;34.30;90.40;;;;;;20908618;28;19976;-82
2023/08/20 16:56:55;;;;;;;;;;;33.60;92.20;;;;;;20902556;28;19924;-83
2023/08/20 17:06:56;;;;;;;;;;;33.40;93.70;;;;;;20897083;28;20381;-83
2023/08/20 17:16:56;;;;;;;;;;;33.00;95.30;;;;;;20913530;28;19948;-84
2023/08/20 17:26:57;;;;;;;;;;;32.80;97.20;;;;;;20874526;28;19913;-84
2023/08/20 17:36:58;;;;;;;;;;;32.60;97.70;;;;;;20933767;28;19995;-83
2023/08/20 17:46:59;;;;;;;;;;;32.30;99.10;;;;;;20899812;28;19925;-82
2023/08/20 17:56:59;;;;;;;;;;;31.90;99.90;;;;;;20885413;28;19920;-84
2023/08/20 18:07:00;;;;;;;;;;;31.60;99.90;;;;;;20930077;28;19912;-84
2023/08/20 18:17:01;;;;;;;;;;;31.30;99.90;;;;;;20934966;28;19924;-84
2023/08/20 18:27:02;;;;;;;;;;;30.50;99.90;;;;;;20925565;28;19912;-84
2023/08/20 18:37:03;;;;;;;;;;;29.80;99.90;;;;;;20926268;28;20000;-83
2023/08/20 18:47:03;;;;;;;;;;;29.50;99.90;;;;;;20941223;28;19917;-85
2023/08/20 18:57:05;;;;;;;;;;;28.80;99.90;;;;;;20947292;28;19920;-85
2023/08/20 19:07:06;;;;;;;;;;;28.70;99.90;;;;;;20945055;28;19912;-85
2023/08/20 19:17:07;;;;;;;;;;;28.10;99.90;;;;;;20931488;28;20036;-85
2023/08/20 19:27:08;;;;;;;;;;;27.90;99.90;;;;;;20937312;28;19924;-83
2023/08/20 19:37:08;;;;;;;;;;;27.40;99.90;;;;;;20952839;28;20363;-83
2023/08/20 19:47:09;;;;;;;;;;;26.80;99.90;;;;;;20924997;28;20004;-82
2023/08/20 19:57:10;;;;;;;;;;;26.60;99.90;;;;;;20927348;28;19924;-84
2023/08/20 20:07:11;;;;;;;;;;;26.40;99.90;;;;;;20925672;28;19913;-83
2023/08/20 20:17:12;;;;;;;;;;;26.00;99.90;;;;;;20940646;28;19939;-83
2023/08/20 20:27:13;;;;;;;;;;;25.70;99.90;;;;;;20911830;28;19973;-83
2023/08/20 20:37:13;;;;;;;;;;;25.40;99.90;;;;;;20846816;22;19932;-72
2023/08/20 20:47:14;;;;;;;;;;;24.90;99.90;;;;;;20816989;28;19945;-72
2023/08/20 20:57:15;;;;;;;;;;;24.80;99.90;;;;;;20826193;28;19964;-72
2023/08/20 21:07:15;;;;;;;;;;;24.50;99.90;;;;;;20825713;28;19953;-72
2023/08/20 21:17:16;;;;;;;;;;;24.50;99.90;;;;;;20823485;28;20032;-72
2023/08/20 21:27:16;;;;;;;;;;;24.40;99.90;;;;;;20807181;28;19967;-72
2023/08/20 21:37:17;;;;;;;;;;;24.20;99.90;;;;;;20823553;28;20015;-72
2023/08/20 21:47:25;;;;;;;;;;;24.00;99.90;;;;;;20838802;28;19998;-71
2023/08/20 21:57:25;;;;;;;;;;;23.70;99.90;;;;;;20821809;28;19921;-72
2023/08/20 22:07:27;;;;;;;;;;;23.60;99.90;;;;;;20839267;28;19990;-72
2023/08/20 22:17:28;;;;;;;;;;;23.50;99.90;;;;;;20818041;28;19917;-74
2023/08/20 22:27:28;;;;;;;;;;;23.30;99.90;;;;;;20835705;28;20337;-74
2023/08/20 22:37:29;;;;;;;;;;;23.10;99.90;;;;;;20834474;28;19924;-73
2023/08/20 22:47:30;;;;;;;;;;;23.10;99.90;;;;;;20833831;28;19964;-74
2023/08/20 22:57:30;;;;;;;;;;;23.10;99.90;;;;;;20826673;28;20291;-73
2023/08/20 23:07:31;;;;;;;;;;;22.80;99.90;;;;;;20837152;28;20001;-73
2023/08/20 23:17:32;;;;;;;;;;;22.70;99.90;;;;;;20835092;28;20355;-73
2023/08/20 23:27:32;;;;;;;;;;;22.60;99.90;;;;;;20828143;28;19913;-74
2023/08/20 23:37:33;;;;;;;;;;;22.40;99.90;;;;;;20825501;28;20423;-73
2023/08/20 23:47:34;;;;;;;;;;;22.30;99.90;;;;;;20833873;28;19913;-73
2023/08/20 23:57:34;;;;;;;;;;;22.10;99.90;;;;;;20834023;28;19924;-72
